Time;durP1;ratioP1;P1;durP2;ratioP2;P2;SDS_P1;SDS_P2;PMS_P1;PMS_P2;Temp;Humidity;BMP_temperature;BMP_pressure;BME280_temperature;BME280_humidity;BME280_pressure;Samples;Min_cycle;Max_cycle;Signal;HPM_P1;HPM_P2
2023/07/25 00:02:22;;;;;;;14.13;4.75;;;13.20;99.60;;;;;;5007709;28;20029;-69
2023/07/25 00:04:48;;;;;;;14.50;5.20;;;13.10;99.50;;;;;;5005456;28;20054;-69
2023/07/25 00:07:13;;;;;;;15.82;5.20;;;13.00;99.60;;;;;;5008596;28;20034;-69
2023/07/25 00:09:39;;;;;;;14.57;5.13;;;13.00;99.70;;;;;;5009381;28;20046;-69
2023/07/25 00:12:05;;;;;;;14.25;4.95;;;13.00;99.70;;;;;;5013337;28;20038;-68
2023/07/25 00:14:31;;;;;;;8.07;5.10;;;13.00;99.70;;;;;;5013535;28;20030;-68
2023/07/25 00:16:56;;;;;;;12.02;5.53;;;13.00;99.70;;;;;;5007978;28;20017;-68
2023/07/25 00:19:22;;;;;;;13.60;4.75;;;12.90;99.70;;;;;;5008026;28;20060;-68
2023/07/25 00:21:47;;;;;;;10.57;5.10;;;12.90;99.80;;;;;;5010458;28;20351;-68
2023/07/25 00:24:13;;;;;;;13.20;5.38;;;12.90;99.80;;;;;;5009655;28;20052;-69
2023/07/25 00:26:38;;;;;;;13.02;5.10;;;12.90;99.80;;;;;;5013217;28;20037;-69
2023/07/25 00:29:04;;;;;;;11.85;5.40;;;12.90;99.90;;;;;;5013930;28;20025;-69
2023/07/25 00:31:30;;;;;;;20.95;6.00;;;12.90;99.90;;;;;;5009738;28;20030;-69
2023/07/25 00:33:55;;;;;;;14.75;5.93;;;12.90;99.90;;;;;;5006966;28;20509;-69
2023/07/25 00:36:21;;;;;;;19.63;6.00;;;12.90;99.90;;;;;;5009983;28;20072;-69
2023/07/25 00:38:46;;;;;;;13.57;6.05;;;12.80;99.90;;;;;;5009394;28;20056;-68
2023/07/25 00:41:12;;;;;;;21.05;6.35;;;12.80;99.90;;;;;;5011253;28;20462;-68
2023/07/25 00:43:37;;;;;;;10.55;5.65;;;12.80;99.90;;;;;;5010976;28;20077;-70
2023/07/25 00:46:04;;;;;;;13.60;6.35;;;12.70;99.90;;;;;;5005203;28;20037;-68
2023/07/25 00:48:31;;;;;;;21.55;6.55;;;12.70;99.90;;;;;;5009323;28;20027;-69
2023/07/25 00:50:56;;;;;;;12.85;6.57;;;12.60;99.90;;;;;;5008115;28;20029;-68
2023/07/25 00:53:23;;;;;;;18.60;7.13;;;12.60;99.90;;;;;;5006988;28;20030;-69
2023/07/25 00:55:50;;;;;;;19.85;6.82;;;12.50;99.90;;;;;;5029136;28;20485;-69
2023/07/25 00:58:16;;;;;;;22.63;6.85;;;12.60;99.90;;;;;;5009989;28;20436;-69
2023/07/25 01:00:43;;;;;;;23.25;6.60;;;12.50;99.90;;;;;;5010069;28;20032;-69
2023/07/25 01:03:10;;;;;;;19.27;7.72;;;12.50;99.90;;;;;;5007063;28;20153;-68
2023/07/25 01:05:40;;;;;;;18.85;7.57;;;12.50;99.90;;;;;;5005529;28;20103;-68
2023/07/25 01:08:06;;;;;;;16.02;7.72;;;12.40;99.90;;;;;;5006936;28;20034;-68
2023/07/25 01:10:32;;;;;;;17.98;8.32;;;12.40;99.90;;;;;;5012953;28;20037;-69
2023/07/25 01:12:58;;;;;;;26.08;7.85;;;12.30;99.90;;;;;;5011059;28;20457;-68
2023/07/25 01:15:24;;;;;;;17.77;7.60;;;12.30;99.90;;;;;;5006454;28;20530;-68
2023/07/25 01:17:50;;;;;;;22.83;8.38;;;12.30;99.90;;;;;;5009037;28;20029;-68
2023/07/25 01:20:16;;;;;;;17.02;9.00;;;12.30;99.90;;;;;;5012166;28;20069;-68
2023/07/25 01:22:43;;;;;;;20.55;8.98;;;12.30;99.90;;;;;;5009299;28;20104;-69
2023/07/25 01:25:09;;;;;;;21.75;8.98;;;12.20;99.90;;;;;;5013966;28;20409;-68
2023/07/25 01:27:34;;;;;;;19.35;8.45;;;12.20;99.90;;;;;;5005053;28;20083;-68
2023/07/25 01:30:00;;;;;;;20.83;8.85;;;12.10;99.90;;;;;;5007094;28;20030;-68
2023/07/25 01:32:26;;;;;;;25.20;9.38;;;12.10;99.90;;;;;;5006473;28;20703;-68
2023/07/25 01:34:51;;;;;;;28.25;9.93;;;12.10;99.90;;;;;;5003590;28;20029;-68
2023/07/25 01:37:17;;;;;;;24.23;9.55;;;12.10;99.90;;;;;;5006882;28;20040;-68
2023/07/25 01:39:43;;;;;;;25.50;9.65;;;12.10;99.90;;;;;;5006680;28;20065;-68
2023/07/25 01:42:09;;;;;;;27.27;9.73;;;12.10;99.90;;;;;;5013173;28;20444;-68
2023/07/25 01:44:34;;;;;;;27.38;9.85;;;12.10;99.90;;;;;;5008050;28;20121;-69
2023/07/25 01:47:00;;;;;;;24.15;9.95;;;12.10;99.90;;;;;;5018688;28;20076;-68
2023/07/25 01:49:25;;;;;;;27.63;10.77;;;12.10;99.90;;;;;;5009548;28;20033;-68
2023/07/25 01:51:51;;;;;;;25.10;10.35;;;12.10;99.90;;;;;;5006853;28;20057;-69
2023/07/25 01:54:16;;;;;;;28.88;9.73;;;12.10;99.90;;;;;;5014148;28;20384;-68
2023/07/25 01:56:42;;;;;;;25.73;10.13;;;12.00;99.90;;;;;;5011232;28;20030;-68
2023/07/25 01:59:08;;;;;;;29.65;9.60;;;12.00;99.90;;;;;;5017152;28;20386;-69
2023/07/25 02:01:33;;;;;;;25.80;10.20;;;12.00;99.90;;;;;;5009289;28;20034;-68
2023/07/25 02:03:59;;;;;;;28.73;10.00;;;11.90;99.90;;;;;;5005432;28;20054;-68
2023/07/25 02:06:24;;;;;;;28.30;10.05;;;11.90;99.90;;;;;;5008058;28;20034;-69
2023/07/25 02:08:49;;;;;;;30.92;10.80;;;11.90;99.90;;;;;;5006127;28;20536;-68
2023/07/25 02:11:15;;;;;;;33.13;10.63;;;11.90;99.90;;;;;;5012742;28;20078;-68
2023/07/25 02:13:40;;;;;;;27.05;10.00;;;11.90;99.90;;;;;;5006410;28;20069;-69
2023/07/25 02:16:06;;;;;;;23.13;9.35;;;11.80;99.90;;;;;;5006259;28;20029;-69
2023/07/25 02:18:31;;;;;;;29.17;10.25;;;11.80;99.90;;;;;;5009377;28;20366;-68
2023/07/25 02:20:57;;;;;;;30.52;10.50;;;11.80;99.90;;;;;;5008105;28;20029;-70
2023/07/25 02:23:22;;;;;;;27.38;9.75;;;11.80;99.90;;;;;;5006318;28;20049;-69
2023/07/25 02:25:48;;;;;;;30.10;10.85;;;11.80;99.90;;;;;;5004950;28;20060;-69
2023/07/25 02:28:13;;;;;;;29.27;10.02;;;11.70;99.90;;;;;;5011215;28;20113;-68
2023/07/25 02:30:39;;;;;;;26.17;10.27;;;11.70;99.90;;;;;;5006151;28;20030;-69
2023/07/25 02:33:05;;;;;;;35.53;11.43;;;11.70;99.90;;;;;;5008699;28;20045;-68
2023/07/25 02:35:31;;;;;;;27.55;10.27;;;11.70;99.90;;;;;;5008161;28;20037;-69
2023/07/25 02:37:56;;;;;;;28.90;10.35;;;11.70;99.90;;;;;;5007045;28;20034;-68
2023/07/25 02:40:22;;;;;;;34.10;12.05;;;11.60;99.90;;;;;;5009636;28;20042;-68
2023/07/25 02:42:47;;;;;;;30.95;10.43;;;11.60;99.90;;;;;;5008512;28;20083;-68
2023/07/25 02:45:13;;;;;;;33.67;11.27;;;11.60;99.90;;;;;;5008999;28;20046;-69
2023/07/25 02:47:38;;;;;;;33.42;11.05;;;11.60;99.90;;;;;;5001794;28;20045;-69
2023/07/25 02:50:04;;;;;;;34.53;12.02;;;11.60;99.90;;;;;;5012115;28;20120;-69
2023/07/25 02:52:29;;;;;;;42.20;12.32;;;11.60;99.90;;;;;;5002574;28;20025;-69
2023/07/25 02:54:55;;;;;;;32.60;11.93;;;11.60;99.90;;;;;;5010653;28;20048;-68
2023/07/25 02:57:20;;;;;;;26.40;11.88;;;11.60;99.90;;;;;;5001565;28;20501;-68
2023/07/25 02:59:46;;;;;;;33.88;12.50;;;11.60;99.90;;;;;;5008865;28;20041;-68
2023/07/25 03:02:11;;;;;;;34.30;12.52;;;11.50;99.90;;;;;;5003362;28;20036;-68
2023/07/25 03:04:37;;;;;;;35.80;12.55;;;11.50;99.90;;;;;;5010419;28;20056;-68
2023/07/25 03:07:02;;;;;;;35.08;12.68;;;11.60;99.90;;;;;;5008102;28;20038;-69
2023/07/25 03:09:30;;;;;;;39.35;12.50;;;11.60;99.90;;;;;;5005829;28;20499;-68
2023/07/25 03:11:55;;;;;;;38.80;12.48;;;11.60;99.90;;;;;;5008701;28;20030;-68
2023/07/25 03:14:21;;;;;;;36.70;13.68;;;11.70;99.90;;;;;;5010207;28;20032;-69
2023/07/25 03:16:46;;;;;;;34.22;12.68;;;11.80;99.90;;;;;;5005793;28;20426;-68
2023/07/25 03:19:12;;;;;;;33.70;12.82;;;11.80;99.90;;;;;;5008660;28;20037;-68
2023/07/25 03:21:37;;;;;;;45.38;14.50;;;11.70;99.90;;;;;;5009385;28;20033;-69
2023/07/25 03:24:03;;;;;;;36.05;12.65;;;11.80;99.90;;;;;;5003411;28;20043;-68
2023/07/25 03:26:29;;;;;;;40.33;13.60;;;11.80;99.90;;;;;;5006614;28;20038;-68
2023/07/25 03:28:54;;;;;;;47.08;14.88;;;11.80;99.90;;;;;;5006316;28;20021;-68
2023/07/25 03:31:19;;;;;;;41.38;14.13;;;11.70;99.90;;;;;;5008399;28;20029;-69
2023/07/25 03:33:45;;;;;;;45.60;15.80;;;11.80;99.90;;;;;;5007380;28;20030;-68
2023/07/25 03:36:10;;;;;;;52.25;18.30;;;11.80;99.90;;;;;;5009876;28;20029;-69
2023/07/25 03:38:36;;;;;;;42.55;16.45;;;11.80;99.90;;;;;;5007388;28;20417;-68
2023/07/25 03:41:01;;;;;;;55.42;16.75;;;11.80;99.90;;;;;;5006002;28;20030;-69
2023/07/25 03:43:27;;;;;;;49.70;16.73;;;11.90;99.90;;;;;;5006445;28;20481;-68
2023/07/25 03:45:52;;;;;;;52.78;18.83;;;12.00;99.90;;;;;;5002056;28;20185;-69
2023/07/25 03:48:18;;;;;;;51.88;17.98;;;12.00;99.90;;;;;;5006390;28;20033;-69
2023/07/25 03:50:43;;;;;;;50.50;19.48;;;12.00;99.90;;;;;;5008083;28;20084;-69
2023/07/25 03:53:09;;;;;;;47.95;17.95;;;12.00;99.90;;;;;;5006725;28;20510;-68
2023/07/25 03:55:34;;;;;;;48.45;17.38;;;12.00;99.90;;;;;;5004675;28;20023;-69
2023/07/25 03:58:00;;;;;;;59.95;19.13;;;12.00;99.90;;;;;;5008355;28;20030;-68
2023/07/25 04:00:25;;;;;;;55.35;19.25;;;12.00;99.90;;;;;;5008929;28;20061;-68
2023/07/25 04:02:50;;;;;;;38.25;17.25;;;12.00;99.90;;;;;;5002445;28;20026;-69
2023/07/25 04:05:16;;;;;;;56.90;18.77;;;12.00;99.90;;;;;;5007047;28;20034;-68
2023/07/25 04:07:42;;;;;;;52.03;18.30;;;12.00;99.90;;;;;;5007603;28;20030;-68
2023/07/25 04:10:07;;;;;;;51.20;18.55;;;12.10;99.90;;;;;;5005961;28;20246;-68
2023/07/25 04:12:33;;;;;;;50.97;18.05;;;12.10;99.90;;;;;;5004882;28;20022;-69
2023/07/25 04:14:58;;;;;;;54.90;18.38;;;12.10;99.90;;;;;;5012046;28;20120;-68
2023/07/25 04:17:24;;;;;;;49.50;17.67;;;12.10;99.90;;;;;;5006929;28;20053;-69
2023/07/25 04:19:50;;;;;;;48.28;16.83;;;12.20;99.90;;;;;;5009759;28;20524;-69
2023/07/25 04:22:15;;;;;;;50.15;17.08;;;12.30;99.90;;;;;;5010763;28;20054;-69
2023/07/25 04:24:41;;;;;;;45.22;16.90;;;12.30;99.90;;;;;;5008709;28;20391;-69
2023/07/25 04:27:06;;;;;;;39.63;16.27;;;12.20;99.90;;;;;;5011073;28;20033;-67
2023/07/25 04:29:31;;;;;;;46.25;16.67;;;12.20;99.90;;;;;;5011490;28;20438;-68
2023/07/25 04:31:57;;;;;;;49.92;16.52;;;12.20;99.90;;;;;;5009784;28;20033;-68
2023/07/25 04:34:22;;;;;;;39.85;16.00;;;12.20;99.90;;;;;;5008661;28;20084;-68
2023/07/25 04:36:48;;;;;;;47.28;16.45;;;12.20;99.90;;;;;;5010149;28;20141;-68
2023/07/25 04:39:13;;;;;;;45.90;15.55;;;12.20;99.90;;;;;;5010847;28;20037;-68
2023/07/25 04:41:39;;;;;;;45.13;16.42;;;12.20;99.90;;;;;;5009737;28;20044;-68
2023/07/25 04:44:04;;;;;;;47.97;16.45;;;12.20;99.90;;;;;;5010053;28;20030;-68
2023/07/25 04:46:30;;;;;;;41.08;15.88;;;12.20;99.90;;;;;;5009629;28;20084;-68
2023/07/25 04:48:56;;;;;;;47.83;15.35;;;12.20;99.90;;;;;;5009607;28;20117;-68
2023/07/25 04:51:22;;;;;;;44.38;15.93;;;12.20;99.90;;;;;;5008315;28;20477;-68
2023/07/25 04:53:47;;;;;;;54.10;16.58;;;12.20;99.90;;;;;;5002308;28;20030;-68
2023/07/25 04:56:13;;;;;;;43.08;15.60;;;12.20;99.90;;;;;;5013459;28;20021;-69
2023/07/25 04:58:40;;;;;;;44.65;16.35;;;12.20;99.90;;;;;;5005570;28;20041;-69
2023/07/25 05:01:06;;;;;;;60.95;17.33;;;12.30;99.90;;;;;;5012192;28;20021;-68
2023/07/25 05:03:32;;;;;;;43.65;16.60;;;12.20;99.90;;;;;;5008738;28;20042;-68
2023/07/25 05:05:57;;;;;;;43.72;15.73;;;12.20;99.90;;;;;;5008297;28;20636;-68
2023/07/25 05:08:23;;;;;;;46.80;17.20;;;12.30;99.90;;;;;;5008663;28;20061;-68
2023/07/25 05:10:50;;;;;;;47.67;16.55;;;12.30;99.90;;;;;;5012603;28;20056;-69
2023/07/25 05:13:16;;;;;;;45.03;16.58;;;12.30;99.90;;;;;;5012705;28;20022;-68
2023/07/25 05:15:41;;;;;;;48.75;17.52;;;12.40;99.90;;;;;;5008872;28;20520;-68
2023/07/25 05:18:07;;;;;;;53.53;16.65;;;12.40;99.90;;;;;;5005506;28;20041;-68
2023/07/25 05:20:32;;;;;;;48.92;17.35;;;12.50;99.90;;;;;;5008736;28;20033;-68
2023/07/25 05:22:58;;;;;;;52.75;16.58;;;12.50;99.90;;;;;;5003944;28;20069;-68
2023/07/25 05:25:23;;;;;;;53.90;17.17;;;12.60;99.90;;;;;;5002548;28;20553;-68
2023/07/25 05:27:49;;;;;;;47.72;16.83;;;12.60;99.90;;;;;;5010585;28;20038;-68
2023/07/25 05:30:14;;;;;;;45.13;16.75;;;12.60;99.90;;;;;;5012467;28;20038;-68
2023/07/25 05:32:40;;;;;;;43.72;17.52;;;12.70;99.90;;;;;;5011747;28;20458;-68
2023/07/25 05:35:06;;;;;;;47.10;15.88;;;12.80;99.90;;;;;;5008392;28;20040;-68
2023/07/25 05:37:36;;;;;;;48.00;17.00;;;12.90;99.90;;;;;;5009161;28;20033;-68
2023/07/25 05:40:02;;;;;;;44.30;16.85;;;13.00;99.90;;;;;;5007905;28;20040;-68
2023/07/25 05:42:27;;;;;;;47.53;18.05;;;13.20;99.90;;;;;;5012887;28;20366;-68
2023/07/25 05:44:53;;;;;;;50.85;16.60;;;13.40;99.90;;;;;;5009334;28;20041;-69
2023/07/25 05:47:18;;;;;;;38.25;16.15;;;13.40;99.90;;;;;;5009902;28;20107;-69
2023/07/25 05:49:43;;;;;;;46.33;16.05;;;13.40;99.90;;;;;;5005645;28;20450;-69
2023/07/25 05:52:09;;;;;;;43.88;15.02;;;13.50;99.90;;;;;;5009131;28;20049;-68
2023/07/25 05:54:35;;;;;;;32.20;14.55;;;13.50;99.70;;;;;;5013424;28;20033;-68
2023/07/25 05:57:01;;;;;;;33.22;13.50;;;13.60;99.40;;;;;;5009732;28;20026;-68
2023/07/25 05:59:26;;;;;;;30.67;12.85;;;13.70;99.20;;;;;;5008921;28;20053;-68
2023/07/25 06:01:52;;;;;;;33.85;12.65;;;13.80;99.10;;;;;;5009570;28;20123;-68
2023/07/25 06:04:18;;;;;;;36.67;12.27;;;13.80;98.80;;;;;;5009822;28;20128;-69
2023/07/25 06:06:43;;;;;;;28.67;11.40;;;13.80;98.70;;;;;;5003833;28;20030;-69
2023/07/25 06:09:08;;;;;;;26.67;10.55;;;13.70;98.50;;;;;;5018109;28;20030;-69
2023/07/25 06:11:34;;;;;;;22.75;11.05;;;13.80;98.40;;;;;;5005405;28;20062;-69
2023/07/25 06:14:00;;;;;;;21.85;9.85;;;13.90;98.30;;;;;;5004343;28;20267;-69
2023/07/25 06:16:25;;;;;;;21.30;10.43;;;14.10;98.40;;;;;;5003471;28;20030;-68
2023/07/25 06:18:51;;;;;;;20.85;8.70;;;14.30;98.30;;;;;;5004680;28;20366;-68
2023/07/25 06:21:17;;;;;;;25.00;9.20;;;14.40;97.80;;;;;;5008313;28;20455;-68
2023/07/25 06:23:42;;;;;;;23.08;8.50;;;14.40;97.50;;;;;;5007778;28;20026;-68
2023/07/25 06:26:08;;;;;;;28.38;9.00;;;14.50;97.50;;;;;;5001985;28;20160;-68
2023/07/25 06:28:33;;;;;;;16.15;7.60;;;14.60;97.60;;;;;;5006288;28;20030;-68
2023/07/25 06:30:59;;;;;;;14.35;6.65;;;14.50;97.30;;;;;;5011140;28;20273;-68
2023/07/25 06:33:24;;;;;;;20.52;6.30;;;14.30;96.50;;;;;;5011300;28;20458;-68
2023/07/25 06:35:50;;;;;;;12.10;5.57;;;14.40;97.30;;;;;;5004426;28;20466;-68
2023/07/25 06:38:15;;;;;;;17.35;5.95;;;14.30;96.60;;;;;;5007288;28;20113;-68
2023/07/25 06:40:41;;;;;;;11.60;5.10;;;14.50;96.70;;;;;;5008903;28;20038;-68
2023/07/25 06:43:06;;;;;;;14.55;4.75;;;14.50;96.70;;;;;;5016860;28;20025;-68
2023/07/25 06:45:31;;;;;;;10.52;4.50;;;14.60;96.70;;;;;;5007615;28;20038;-69
2023/07/25 06:47:57;;;;;;;15.20;5.05;;;14.80;96.00;;;;;;5008608;28;20577;-68
2023/07/25 06:50:22;;;;;;;8.70;4.25;;;14.90;95.80;;;;;;5004589;28;20026;-68
2023/07/25 06:52:48;;;;;;;9.45;3.75;;;15.00;95.50;;;;;;5003934;28;20029;-68
2023/07/25 06:55:15;;;;;;;7.68;3.30;;;15.00;94.90;;;;;;5001747;28;20024;-69
2023/07/25 06:57:40;;;;;;;8.25;3.33;;;15.00;94.30;;;;;;4999577;28;20033;-69
2023/07/25 07:00:07;;;;;;;9.65;3.17;;;14.90;93.80;;;;;;5020881;28;20033;-68
2023/07/25 07:02:33;;;;;;;10.57;3.30;;;15.00;93.60;;;;;;5004225;28;20097;-68
2023/07/25 07:04:58;;;;;;;10.73;3.25;;;15.10;93.20;;;;;;5001583;28;20045;-68
2023/07/25 07:07:24;;;;;;;6.95;3.10;;;15.50;93.90;;;;;;5015714;28;20124;-68
2023/07/25 07:09:49;;;;;;;9.70;2.90;;;15.60;92.50;;;;;;5015862;28;20028;-69
2023/07/25 07:12:16;;;;;;;11.40;3.22;;;15.70;91.30;;;;;;5009734;28;20365;-69
2023/07/25 07:14:41;;;;;;;9.10;3.00;;;15.80;91.60;;;;;;5003468;28;20346;-68
2023/07/25 07:17:07;;;;;;;9.30;2.83;;;15.70;91.20;;;;;;5008589;28;20049;-68
2023/07/25 07:19:32;;;;;;;9.18;3.30;;;15.70;91.30;;;;;;5006854;28;20073;-68
2023/07/25 07:21:58;;;;;;;13.93;2.95;;;15.80;92.20;;;;;;5000779;28;20615;-69
2023/07/25 07:24:23;;;;;;;11.00;2.55;;;16.00;91.80;;;;;;5001358;28;20034;-69
2023/07/25 07:26:49;;;;;;;13.02;2.50;;;16.00;91.00;;;;;;5002249;28;20092;-69
2023/07/25 07:29:14;;;;;;;8.98;2.50;;;15.90;90.40;;;;;;5003369;28;20544;-69
2023/07/25 07:31:40;;;;;;;11.00;2.95;;;15.90;89.80;;;;;;5003503;28;20221;-69
2023/07/25 07:34:16;;;;;;;5.75;1.92;;;16.00;90.10;;;;;;5003958;28;20406;-69
2023/07/25 07:36:42;;;;;;;7.05;2.13;;;16.00;89.40;;;;;;5005342;28;20026;-69
2023/07/25 07:39:08;;;;;;;7.03;2.13;;;16.20;89.90;;;;;;5004519;28;20454;-69
2023/07/25 07:41:34;;;;;;;6.40;2.13;;;16.10;89.50;;;;;;5010728;28;20030;-69
2023/07/25 07:44:00;;;;;;;8.88;2.47;;;16.00;89.60;;;;;;5004010;28;20414;-69
2023/07/25 07:46:29;;;;;;;6.90;2.50;;;16.00;90.00;;;;;;5005073;28;20057;-68
2023/07/25 07:48:57;;;;;;;7.97;2.40;;;16.00;88.90;;;;;;5013086;28;20454;-69
2023/07/25 07:51:23;;;;;;;6.05;2.42;;;16.00;88.60;;;;;;5014036;28;20029;-70
2023/07/25 07:53:49;;;;;;;7.00;2.03;;;16.10;88.40;;;;;;5009639;28;20466;-70
2023/07/25 07:56:14;;;;;;;9.45;2.17;;;16.30;89.20;;;;;;5009706;28;20097;-70
2023/07/25 07:58:40;;;;;;;11.43;2.25;;;16.30;87.60;;;;;;5009910;28;20117;-70
2023/07/25 08:01:15;;;;;;;5.30;2.20;;;16.30;87.90;;;;;;5023453;28;20075;-70
2023/07/25 08:03:40;;;;;;;9.32;2.25;;;16.20;86.90;;;;;;5005069;28;20115;-70
2023/07/25 08:06:06;;;;;;;7.53;2.15;;;16.30;87.30;;;;;;5006481;28;20447;-70
2023/07/25 08:08:31;;;;;;;10.48;2.28;;;16.40;87.80;;;;;;5003523;28;20108;-70
2023/07/25 08:10:57;;;;;;;8.57;2.10;;;16.50;87.70;;;;;;5002594;28;20022;-70
2023/07/25 08:13:22;;;;;;;7.78;2.20;;;16.50;86.90;;;;;;5002917;28;20160;-70
2023/07/25 08:15:47;;;;;;;7.13;2.15;;;16.70;87.70;;;;;;5003342;28;20046;-70
2023/07/25 08:18:13;;;;;;;9.30;2.05;;;16.70;87.10;;;;;;5008470;28;20113;-70
2023/07/25 08:20:38;;;;;;;8.15;2.28;;;16.80;85.60;;;;;;5005251;28;20042;-70
2023/07/25 08:23:04;;;;;;;8.70;2.30;;;17.10;86.30;;;;;;5004207;28;20197;-70
2023/07/25 08:25:29;;;;;;;4.72;1.92;;;17.00;85.10;;;;;;5006354;28;20041;-70
2023/07/25 08:27:55;;;;;;;7.88;1.90;;;16.90;85.10;;;;;;5015411;28;20030;-70
2023/07/25 08:30:20;;;;;;;9.38;2.08;;;16.90;84.80;;;;;;5011780;28;20073;-70
2023/07/25 08:32:46;;;;;;;21.40;4.85;;;17.00;86.80;;;;;;5009494;28;20022;-70
2023/07/25 08:35:11;;;;;;;9.70;2.15;;;17.00;85.10;;;;;;5004884;28;20033;-70
2023/07/25 08:37:37;;;;;;;6.47;1.70;;;16.80;84.10;;;;;;5003862;28;20057;-70
2023/07/25 08:40:02;;;;;;;6.05;1.90;;;16.60;83.50;;;;;;5006106;28;20037;-71
2023/07/25 08:42:31;;;;;;;6.68;1.80;;;16.50;84.10;;;;;;5007152;28;21604;-70
2023/07/25 08:44:59;;;;;;;10.50;1.90;;;16.60;85.10;;;;;;5018512;28;20382;-70
2023/07/25 08:47:28;;;;;;;4.70;1.83;;;16.70;85.00;;;;;;5009141;28;20026;-69
2023/07/25 08:49:57;;;;;;;11.68;2.30;;;16.80;85.00;;;;;;5003104;28;20029;-69
2023/07/25 08:52:27;;;;;;;5.50;1.92;;;17.30;86.80;;;;;;5006562;28;20026;-70
2023/07/25 08:54:53;;;;;;;10.05;2.17;;;17.00;84.80;;;;;;5000134;28;20034;-69
2023/07/25 08:57:20;;;;;;;10.77;3.53;;;17.40;85.30;;;;;;5011903;28;20139;-70
2023/07/25 08:59:48;;;;;;;5.20;1.75;;;17.70;83.20;;;;;;5005097;28;20172;-69
2023/07/25 09:02:15;;;;;;;6.95;2.13;;;17.70;82.50;;;;;;5003031;28;20045;-69
2023/07/25 09:04:41;;;;;;;6.53;1.80;;;17.90;82.40;;;;;;5009594;28;20053;-70
2023/07/25 09:07:06;;;;;;;5.22;1.73;;;18.00;81.90;;;;;;5001646;28;20021;-69
2023/07/25 09:09:32;;;;;;;6.05;1.80;;;17.90;80.80;;;;;;5009304;28;20369;-69
2023/07/25 09:11:58;;;;;;;8.57;2.40;;;17.80;81.80;;;;;;5006092;28;20044;-70
2023/07/25 09:14:23;;;;;;;10.60;2.35;;;17.80;82.50;;;;;;5010828;28;20127;-69
2023/07/25 09:16:49;;;;;;;7.03;1.80;;;18.20;81.70;;;;;;5011443;28;20141;-69
2023/07/25 09:19:15;;;;;;;9.50;2.05;;;18.00;80.60;;;;;;5010104;28;20033;-69
2023/07/25 09:21:48;;;;;;;8.90;2.38;;;18.00;81.00;;;;;;5007265;28;20034;-69
2023/07/25 09:24:14;;;;;;;6.40;1.33;;;18.00;81.70;;;;;;5004042;28;20041;-70
2023/07/25 09:26:46;;;;;;;5.53;1.77;;;17.60;82.20;;;;;;5012329;28;20022;-69
2023/07/25 09:29:12;;;;;;;6.85;2.08;;;17.60;82.20;;;;;;5002867;28;20067;-69
2023/07/25 09:31:44;;;;;;;3.17;1.30;;;18.40;80.90;;;;;;5005198;28;20033;-69
2023/07/25 09:34:17;;;;;;;5.25;1.52;;;18.70;79.60;;;;;;5005395;28;20030;-70
2023/07/25 09:36:47;;;;;;;3.78;1.40;;;18.40;80.20;;;;;;4999970;28;20029;-70
2023/07/25 09:39:13;;;;;;;6.18;1.60;;;18.00;78.90;;;;;;5009313;28;20025;-70
2023/07/25 09:41:39;;;;;;;5.20;1.60;;;18.20;79.00;;;;;;5008439;28;20033;-69
2023/07/25 09:44:07;;;;;;;7.43;1.23;;;18.70;77.10;;;;;;5006277;28;20022;-70
2023/07/25 09:46:33;;;;;;;6.57;1.20;;;19.00;74.80;;;;;;5007610;28;20413;-70
2023/07/25 09:48:59;;;;;;;6.15;1.10;;;19.40;73.90;;;;;;5005348;28;20041;-70
2023/07/25 09:51:24;;;;;;;3.03;0.90;;;19.40;70.50;;;;;;5010609;28;20037;-70
2023/07/25 09:53:54;;;;;;;5.03;1.40;;;19.80;70.50;;;;;;5005025;28;20447;-69
2023/07/25 09:56:24;;;;;;;3.30;0.90;;;20.20;68.00;;;;;;5018630;28;20033;-70
2023/07/25 09:58:51;;;;;;;3.88;0.93;;;20.50;67.50;;;;;;5003404;28;20113;-70
2023/07/25 10:01:16;;;;;;;4.97;1.00;;;20.20;68.90;;;;;;5005198;28;20018;-70
2023/07/25 10:03:43;;;;;;;3.28;0.88;;;19.80;67.10;;;;;;5007073;28;20065;-70
2023/07/25 10:06:10;;;;;;;4.07;1.10;;;19.70;68.10;;;;;;5009291;28;20038;-70
2023/07/25 10:08:38;;;;;;;4.35;1.00;;;19.50;69.50;;;;;;5004903;28;20018;-70
2023/07/25 10:11:05;;;;;;;5.07;0.90;;;19.70;69.30;;;;;;4999800;28;20038;-70
2023/07/25 10:13:32;;;;;;;3.22;0.90;;;19.30;68.10;;;;;;4998471;28;20030;-70
2023/07/25 10:15:59;;;;;;;3.47;0.85;;;19.00;67.10;;;;;;5003666;28;20746;-69
2023/07/25 10:18:26;;;;;;;4.78;1.00;;;19.00;68.20;;;;;;5005482;28;20056;-70
2023/07/25 10:20:52;;;;;;;2.53;0.75;;;19.30;68.30;;;;;;5002665;28;20560;-70
2023/07/25 10:23:19;;;;;;;2.80;0.80;;;19.50;63.90;;;;;;5003060;28;20033;-70
2023/07/25 10:25:45;;;;;;;4.13;0.80;;;19.70;63.70;;;;;;5009396;28;20075;-70
2023/07/25 10:28:12;;;;;;;3.40;0.98;;;20.00;63.40;;;;;;5009342;28;20034;-70
2023/07/25 10:30:45;;;;;;;3.40;0.88;;;20.00;64.40;;;;;;5008115;28;20108;-70
2023/07/25 10:33:13;;;;;;;4.15;0.88;;;20.10;64.80;;;;;;5009796;28;20500;-70
2023/07/25 10:35:39;;;;;;;4.35;1.00;;;19.90;64.20;;;;;;5008112;28;20069;-70
2023/07/25 10:38:09;;;;;;;4.32;1.10;;;20.10;65.20;;;;;;5006692;28;20030;-70
2023/07/25 10:40:55;;;;;;;2.03;0.73;;;20.50;65.10;;;;;;5009920;28;20370;-70
2023/07/25 10:43:22;;;;;;;7.35;0.98;;;20.50;59.50;;;;;;5008776;28;20148;-70
2023/07/25 10:45:49;;;;;;;5.88;0.98;;;20.70;59.80;;;;;;5015860;28;20036;-70
2023/07/25 10:48:35;;;;;;;6.15;1.20;;;20.80;61.40;;;;;;5011581;28;20088;-70
2023/07/25 10:51:06;;;;;;;4.97;1.38;;;21.00;62.20;;;;;;5005589;28;20088;-70
2023/07/25 10:53:32;;;;;;;4.53;0.95;;;21.00;62.90;;;;;;5009990;28;20101;-70
2023/07/25 10:56:03;;;;;;;7.38;1.00;;;20.50;62.30;;;;;;5010760;28;20121;-70
2023/07/25 10:58:33;;;;;;;3.45;1.00;;;20.70;62.50;;;;;;5007604;28;20080;-70
2023/07/25 11:01:00;;;;;;;4.28;1.25;;;20.60;63.30;;;;;;5010070;28;20105;-70
2023/07/25 11:03:34;;;;;;;5.97;0.90;;;20.10;61.80;;;;;;5007967;28;20038;-69
2023/07/25 11:06:06;;;;;;;5.63;1.67;;;19.50;69.50;;;;;;5006501;28;20454;-69
2023/07/25 11:08:38;;;;;;;4.68;1.00;;;18.90;74.90;;;;;;5009922;28;20032;-69
2023/07/25 11:11:08;;;;;;;7.05;1.00;;;18.50;75.50;;;;;;5009071;28;20088;-69
2023/07/25 11:13:36;;;;;;;4.13;0.93;;;18.10;74.70;;;;;;5010011;28;20030;-69
2023/07/25 11:16:02;;;;;;;2.00;0.80;;;18.00;73.50;;;;;;5010647;28;20037;-69
2023/07/25 11:18:28;;;;;;;5.38;1.15;;;18.30;74.80;;;;;;5011014;28;20020;-69
2023/07/25 11:21:00;;;;;;;4.78;1.10;;;18.50;70.70;;;;;;5003770;28;20405;-70
2023/07/25 11:23:26;;;;;;;5.70;1.10;;;18.70;68.50;;;;;;5009404;28;20034;-69
2023/07/25 11:25:53;;;;;;;4.55;1.10;;;19.60;68.20;;;;;;5007104;28;20095;-70
2023/07/25 11:28:20;;;;;;;3.80;0.90;;;19.90;66.20;;;;;;5002399;28;20033;-70
2023/07/25 11:30:46;;;;;;;4.40;0.85;;;20.00;65.00;;;;;;5009441;28;20026;-70
2023/07/25 11:33:12;;;;;;;5.85;1.10;;;19.40;65.70;;;;;;5015424;28;20037;-70
2023/07/25 11:35:37;;;;;;;6.78;1.15;;;19.40;67.80;;;;;;5009120;28;20053;-70
2023/07/25 11:38:03;;;;;;;5.05;1.25;;;18.90;68.00;;;;;;5014677;28;20045;-69
2023/07/25 11:40:29;;;;;;;8.10;1.05;;;18.70;69.60;;;;;;5013802;28;20028;-69
2023/07/25 11:42:56;;;;;;;6.15;1.27;;;18.60;71.20;;;;;;5006417;28;20038;-69
2023/07/25 11:45:22;;;;;;;6.90;1.30;;;18.20;71.30;;;;;;5011695;28;20030;-69
2023/07/25 11:47:50;;;;;;;9.20;1.60;;;17.90;74.30;;;;;;5014058;28;20021;-69
2023/07/25 11:50:16;;;;;;;10.70;1.77;;;17.40;77.60;;;;;;5011306;28;20026;-69
2023/07/25 11:52:44;;;;;;;8.95;1.52;;;17.00;80.10;;;;;;5011574;28;20370;-69
2023/07/25 11:55:10;;;;;;;5.43;1.40;;;16.70;83.00;;;;;;5009675;28;20042;-69
2023/07/25 11:57:37;;;;;;;6.25;1.80;;;16.40;84.10;;;;;;5012208;28;20026;-69
2023/07/25 12:00:15;;;;;;;7.80;2.10;;;16.30;85.80;;;;;;5012621;28;20053;-69
2023/07/25 12:02:41;;;;;;;5.05;2.10;;;16.30;85.50;;;;;;5013620;28;20037;-69
2023/07/25 12:05:09;;;;;;;5.65;1.50;;;16.10;85.60;;;;;;5009014;28;20069;-69
2023/07/25 12:07:49;;;;;;;9.73;1.70;;;16.10;85.70;;;;;;5007740;28;20071;-69
2023/07/25 12:10:28;;;;;;;6.88;1.73;;;16.10;85.60;;;;;;5012757;28;20018;-69
2023/07/25 12:12:55;;;;;;;5.65;1.40;;;16.30;85.30;;;;;;5012775;28;20049;-69
2023/07/25 12:15:21;;;;;;;7.43;1.73;;;16.50;85.30;;;;;;5006441;28;20034;-69
2023/07/25 12:17:47;;;;;;;11.45;1.88;;;16.70;84.50;;;;;;5010798;28;20026;-69
2023/07/25 12:20:17;;;;;;;10.15;1.50;;;16.80;84.10;;;;;;5011007;28;20030;-69
2023/07/25 12:22:43;;;;;;;6.63;1.60;;;16.90;84.50;;;;;;5012271;28;20029;-69
2023/07/25 12:25:09;;;;;;;8.43;2.17;;;17.00;83.70;;;;;;5010804;28;20061;-69
2023/07/25 12:27:43;;;;;;;12.32;1.73;;;17.00;84.00;;;;;;5010583;28;20068;-69
2023/07/25 12:30:08;;;;;;;5.78;1.48;;;17.00;83.70;;;;;;5014017;28;20029;-69
2023/07/25 12:32:34;;;;;;;8.05;1.42;;;17.00;84.30;;;;;;5010156;28;20038;-69
2023/07/25 12:35:01;;;;;;;9.25;1.38;;;17.00;84.80;;;;;;5012038;28;20030;-69